createdAt,value
2022-12-29T00:00:13.519Z,7.72
2022-12-29T00:01:13.622Z,7.74
2022-12-29T00:02:13.862Z,7.75
2022-12-29T00:03:13.687Z,7.74
2022-12-29T00:04:15.364Z,7.75
2022-12-29T00:05:13.663Z,7.77
2022-12-29T00:06:13.458Z,7.79
2022-12-29T00:07:13.728Z,7.80
2022-12-29T00:08:13.646Z,7.85
2022-12-29T00:09:13.560Z,7.87
2022-12-29T00:10:13.557Z,7.87
2022-12-29T00:11:13.440Z,7.82
2022-12-29T00:12:13.511Z,7.79
2022-12-29T00:13:13.543Z,7.80
2022-12-29T00:14:13.340Z,7.82
2022-12-29T00:15:13.514Z,7.83
2022-12-29T00:16:13.358Z,7.85
2022-12-29T00:17:13.564Z,7.90
2022-12-29T00:18:13.370Z,7.90
2022-12-29T00:19:13.303Z,7.92
2022-12-29T00:20:13.563Z,7.92
2022-12-29T00:21:13.290Z,7.98
2022-12-29T00:22:13.443Z,8.04
2022-12-29T00:23:13.294Z,8.11
2022-12-29T00:24:13.464Z,8.20
2022-12-29T00:25:13.226Z,8.26
2022-12-29T00:26:13.465Z,8.36
2022-12-29T00:27:13.201Z,8.43
2022-12-29T00:28:13.309Z,8.52
2022-12-29T00:29:13.194Z,8.56
2022-12-29T00:30:13.321Z,8.65
2022-12-29T00:31:13.238Z,8.74
2022-12-29T00:32:13.317Z,8.81
2022-12-29T00:33:13.140Z,8.95
2022-12-29T00:34:13.236Z,9.13
2022-12-29T00:35:13.153Z,9.21
2022-12-29T00:36:13.257Z,9.31
2022-12-29T00:37:13.138Z,9.36
2022-12-29T00:38:13.337Z,9.42
2022-12-29T00:39:13.170Z,9.43
2022-12-29T00:40:13.024Z,9.48
2022-12-29T00:41:13.229Z,9.54
2022-12-29T00:42:13.002Z,9.54
2022-12-29T00:43:13.106Z,9.53
2022-12-29T00:44:13.069Z,9.50
2022-12-29T00:45:12.984Z,9.35
2022-12-29T00:46:19.363Z,9.20
2022-12-29T00:47:13.008Z,8.95
2022-12-29T00:48:13.110Z,8.74
2022-12-29T00:49:12.987Z,8.61
2022-12-29T00:50:13.043Z,8.53
2022-12-29T00:51:12.928Z,8.40
2022-12-29T00:52:12.976Z,8.30
2022-12-29T00:53:12.893Z,8.25
2022-12-29T00:54:12.953Z,8.18
2022-12-29T00:55:12.853Z,8.12
2022-12-29T00:56:12.986Z,8.07
2022-12-29T00:57:12.845Z,8.04
2022-12-29T00:58:12.867Z,8.01
2022-12-29T00:59:12.794Z,8.01
2022-12-29T01:00:12.888Z,8.01
2022-12-29T01:01:12.961Z,7.98
2022-12-29T01:02:13.069Z,7.95
2022-12-29T01:03:12.856Z,7.92
2022-12-29T01:04:12.812Z,7.92
2022-12-29T01:05:12.812Z,7.92
2022-12-29T01:06:12.744Z,7.92
2022-12-29T01:07:12.819Z,7.93
2022-12-29T01:08:12.686Z,7.90
2022-12-29T01:09:12.782Z,7.93
2022-12-29T01:10:12.761Z,7.92
2022-12-29T01:11:12.643Z,7.97
2022-12-29T01:12:12.811Z,7.95
2022-12-29T01:13:12.654Z,7.95
2022-12-29T01:14:12.791Z,7.98
2022-12-29T01:15:12.651Z,7.97
2022-12-29T01:16:12.676Z,8.00
2022-12-29T01:17:12.705Z,8.00
2022-12-29T01:18:12.594Z,8.01
2022-12-29T01:19:12.601Z,8.01
2022-12-29T01:20:12.555Z,8.07
2022-12-29T01:21:12.613Z,8.16
2022-12-29T01:22:12.517Z,8.23
2022-12-29T01:23:12.687Z,8.29
2022-12-29T01:24:12.496Z,8.30
2022-12-29T01:25:12.555Z,8.36
2022-12-29T01:26:12.513Z,8.38
2022-12-29T01:27:12.561Z,8.38
2022-12-29T01:28:12.461Z,8.38
2022-12-29T01:29:12.464Z,8.36
2022-12-29T01:30:12.417Z,8.43
2022-12-29T01:31:12.585Z,8.55
2022-12-29T01:32:12.408Z,8.59
2022-12-29T01:33:12.438Z,8.70
2022-12-29T01:34:12.393Z,8.77
2022-12-29T01:35:12.458Z,8.91
2022-12-29T01:36:12.478Z,9.13
2022-12-29T01:37:12.337Z,9.26
2022-12-29T01:38:12.434Z,9.39
2022-12-29T01:39:12.285Z,9.48
2022-12-29T01:40:12.508Z,9.57
2022-12-29T01:41:12.460Z,9.66
2022-12-29T01:42:12.275Z,9.78
2022-12-29T01:43:12.349Z,9.90
2022-12-29T01:44:12.245Z,9.99
2022-12-29T01:45:12.308Z,10.05
2022-12-29T01:46:12.265Z,10.08
2022-12-29T01:47:12.290Z,10.12
2022-12-29T01:48:12.202Z,10.14
2022-12-29T01:49:12.313Z,10.18
2022-12-29T01:50:12.189Z,10.25
2022-12-29T01:51:12.225Z,10.27
2022-12-29T01:52:12.169Z,10.33
2022-12-29T01:53:12.218Z,10.44
2022-12-29T01:54:12.108Z,10.52
2022-12-29T01:55:12.189Z,10.55
2022-12-29T01:56:12.134Z,10.53
2022-12-29T01:57:12.194Z,10.56
2022-12-29T01:58:12.055Z,10.56
2022-12-29T01:59:12.180Z,10.64
2022-12-29T02:00:12.047Z,10.73
2022-12-29T02:01:12.103Z,10.79
2022-12-29T02:02:12.084Z,10.82
2022-12-29T02:03:12.214Z,10.85
2022-12-29T02:04:12.007Z,10.91
2022-12-29T02:05:12.214Z,10.91
2022-12-29T02:06:11.971Z,10.96
2022-12-29T02:07:12.027Z,10.97
2022-12-29T02:08:11.990Z,10.99
2022-12-29T02:09:12.029Z,10.99
2022-12-29T02:10:11.931Z,11.04
2022-12-29T02:11:12.052Z,11.06
2022-12-29T02:12:12.126Z,11.11
2022-12-29T02:13:11.849Z,11.14
2022-12-29T02:14:12.043Z,11.14
2022-12-29T02:15:11.815Z,11.11
2022-12-29T02:16:12.051Z,11.10
2022-12-29T02:17:11.802Z,11.06
2022-12-29T02:18:11.963Z,11.06
2022-12-29T02:19:11.793Z,11.03
2022-12-29T02:20:11.924Z,11.03
2022-12-29T02:21:11.752Z,11.04
2022-12-29T02:22:11.900Z,11.02
2022-12-29T02:23:11.722Z,10.97
2022-12-29T02:24:11.945Z,10.92
2022-12-29T02:25:11.708Z,10.91
2022-12-29T02:26:11.957Z,10.88
2022-12-29T02:27:11.703Z,10.86
2022-12-29T02:28:11.807Z,10.85
2022-12-29T02:29:11.644Z,10.86
2022-12-29T02:30:11.844Z,10.89
2022-12-29T02:31:11.657Z,10.96
2022-12-29T02:32:11.873Z,10.99
2022-12-29T02:33:11.692Z,11.00
2022-12-29T02:34:11.630Z,11.00
2022-12-29T02:35:11.710Z,11.04
2022-12-29T02:36:11.620Z,11.06
2022-12-29T02:37:11.727Z,11.04
2022-12-29T02:38:11.731Z,11.03
2022-12-29T02:39:11.592Z,11.00
2022-12-29T02:40:11.812Z,10.99
2022-12-29T02:41:11.486Z,10.99
2022-12-29T02:42:11.826Z,10.97
2022-12-29T02:43:11.559Z,10.97
2022-12-29T02:44:11.481Z,10.97
2022-12-29T02:45:11.602Z,10.97
2022-12-29T02:46:11.529Z,10.96
2022-12-29T02:47:11.573Z,10.96
2022-12-29T02:48:11.438Z,10.97
2022-12-29T02:49:11.491Z,10.97
2022-12-29T02:50:11.441Z,10.99
2022-12-29T02:51:11.529Z,10.99
2022-12-29T02:52:11.385Z,10.99
2022-12-29T02:53:11.513Z,11.02
2022-12-29T02:54:11.361Z,11.02
2022-12-29T02:55:11.533Z,11.03
2022-12-29T02:56:11.367Z,11.02
2022-12-29T02:57:11.448Z,11.03
2022-12-29T02:58:11.297Z,11.04
2022-12-29T02:59:11.447Z,11.02
2022-12-29T03:00:11.306Z,11.02
2022-12-29T03:01:11.422Z,11.03
2022-12-29T03:02:11.401Z,10.99
2022-12-29T03:03:11.414Z,10.96
2022-12-29T03:04:11.257Z,10.94
2022-12-29T03:05:11.365Z,10.91
2022-12-29T03:06:11.200Z,10.91
2022-12-29T03:07:11.316Z,10.89
2022-12-29T03:08:11.203Z,10.89
2022-12-29T03:09:18.365Z,10.84
2022-12-29T03:10:11.195Z,10.81
2022-12-29T03:11:11.292Z,10.84
2022-12-29T03:12:11.139Z,10.81
2022-12-29T03:13:11.256Z,10.82
2022-12-29T03:14:11.421Z,10.79
2022-12-29T03:15:11.074Z,10.79
2022-12-29T03:16:11.193Z,10.81
2022-12-29T03:17:11.105Z,10.76
2022-12-29T03:18:11.224Z,10.73
2022-12-29T03:19:11.260Z,10.70
2022-12-29T03:20:11.054Z,10.70
2022-12-29T03:21:11.103Z,10.71
2022-12-29T03:22:11.047Z,10.68
2022-12-29T03:23:11.124Z,10.68
2022-12-29T03:24:10.981Z,10.73
2022-12-29T03:25:11.125Z,10.71
2022-12-29T03:26:10.961Z,10.68
2022-12-29T03:27:10.946Z,10.70
2022-12-29T03:28:10.954Z,10.67
2022-12-29T03:29:10.965Z,10.68
2022-12-29T03:30:10.930Z,10.67
2022-12-29T03:31:11.015Z,10.61
2022-12-29T03:32:10.884Z,10.59
2022-12-29T03:33:11.056Z,10.59
2022-12-29T03:34:10.852Z,10.53
2022-12-29T03:35:10.906Z,10.47
2022-12-29T03:36:10.828Z,10.47
2022-12-29T03:37:10.908Z,10.41
2022-12-29T03:38:10.813Z,10.40
2022-12-29T03:39:10.838Z,10.38
2022-12-29T03:40:10.782Z,10.36
2022-12-29T03:41:10.935Z,10.33
2022-12-29T03:42:10.738Z,10.32
2022-12-29T03:43:10.786Z,10.29
2022-12-29T03:44:10.734Z,10.29
2022-12-29T03:45:10.766Z,10.29
2022-12-29T03:46:10.775Z,10.29
2022-12-29T03:47:10.771Z,10.30
2022-12-29T03:48:10.682Z,10.29
2022-12-29T03:49:10.691Z,10.29
2022-12-29T03:50:10.675Z,10.26
2022-12-29T03:51:10.601Z,10.23
2022-12-29T03:52:10.822Z,10.20
2022-12-29T03:53:10.581Z,10.18
2022-12-29T03:54:10.693Z,10.17
2022-12-29T03:55:10.546Z,10.15
2022-12-29T03:56:10.650Z,10.14
2022-12-29T03:57:10.539Z,10.17
2022-12-29T03:58:10.757Z,10.15
2022-12-29T03:59:10.505Z,10.12
2022-12-29T04:00:10.625Z,10.14
2022-12-29T04:01:10.508Z,10.11
2022-12-29T04:02:10.834Z,10.09
2022-12-29T04:03:10.528Z,10.08
2022-12-29T04:04:10.597Z,10.07
2022-12-29T04:05:16.596Z,10.07
2022-12-29T04:06:10.584Z,10.08
2022-12-29T04:07:10.412Z,10.07
2022-12-29T04:08:10.632Z,10.04
2022-12-29T04:09:10.381Z,10.07
2022-12-29T04:10:10.432Z,10.07
2022-12-29T04:11:10.474Z,10.01
2022-12-29T04:12:10.384Z,10.02
2022-12-29T04:13:10.450Z,10.01
2022-12-29T04:14:10.364Z,10.05
2022-12-29T04:15:10.461Z,10.01
2022-12-29T04:16:10.442Z,10.04
2022-12-29T04:17:10.721Z,10.05
2022-12-29T04:18:10.276Z,10.04
2022-12-29T04:19:10.385Z,10.02
2022-12-29T04:20:10.277Z,10.02
2022-12-29T04:21:10.297Z,9.97
2022-12-29T04:22:10.242Z,9.97
2022-12-29T04:23:10.481Z,9.94
2022-12-29T04:24:10.218Z,9.93
2022-12-29T04:25:10.340Z,9.90
2022-12-29T04:26:10.226Z,9.89
2022-12-29T04:27:10.236Z,9.89
2022-12-29T04:28:10.194Z,9.86
2022-12-29T04:29:10.255Z,9.84
2022-12-29T04:30:10.149Z,9.83
2022-12-29T04:31:10.331Z,9.81
2022-12-29T04:32:10.128Z,9.83
2022-12-29T04:33:10.267Z,9.76
2022-12-29T04:34:10.093Z,9.79
2022-12-29T04:35:10.143Z,9.75
2022-12-29T04:36:10.068Z,9.75
2022-12-29T04:37:10.108Z,9.78
2022-12-29T04:38:10.034Z,9.78
2022-12-29T04:39:10.156Z,9.78
2022-12-29T04:40:10.024Z,9.79
2022-12-29T04:41:10.231Z,9.83
2022-12-29T04:42:10.079Z,9.84
2022-12-29T04:43:09.950Z,9.84
2022-12-29T04:44:10.217Z,9.90
2022-12-29T04:45:09.939Z,9.96
2022-12-29T04:46:10.223Z,9.97
2022-12-29T04:47:09.966Z,10.01
2022-12-29T04:48:09.902Z,10.01
2022-12-29T04:49:10.043Z,10.01
2022-12-29T04:50:09.882Z,9.99
2022-12-29T04:51:10.003Z,9.97
2022-12-29T04:52:09.873Z,9.94
2022-12-29T04:53:09.903Z,9.91
2022-12-29T04:54:09.832Z,9.93
2022-12-29T04:55:10.062Z,9.91
2022-12-29T04:56:09.811Z,9.91
2022-12-29T04:57:09.828Z,9.91
2022-12-29T04:58:09.778Z,9.87
2022-12-29T04:59:09.848Z,9.89
2022-12-29T05:00:09.797Z,9.87
2022-12-29T05:01:09.964Z,9.87
2022-12-29T05:02:09.806Z,9.84
2022-12-29T05:03:10.185Z,9.83
2022-12-29T05:04:09.736Z,9.81
2022-12-29T05:05:09.843Z,9.84
2022-12-29T05:06:09.672Z,9.83
2022-12-29T05:07:09.907Z,9.83
2022-12-29T05:08:09.652Z,9.86
2022-12-29T05:09:09.706Z,9.90
2022-12-29T05:10:09.667Z,9.90
2022-12-29T05:11:09.731Z,9.96
2022-12-29T05:12:09.634Z,9.97
2022-12-29T05:13:09.639Z,10.01
2022-12-29T05:14:09.587Z,10.02
2022-12-29T05:15:09.688Z,10.08
2022-12-29T05:16:09.643Z,10.12
2022-12-29T05:17:09.768Z,10.14
2022-12-29T05:18:09.527Z,10.14
2022-12-29T05:19:09.519Z,10.20
2022-12-29T05:20:09.584Z,10.20
2022-12-29T05:21:09.514Z,10.23
2022-12-29T05:22:09.596Z,10.27
2022-12-29T05:23:09.520Z,10.32
2022-12-29T05:24:09.616Z,10.29
2022-12-29T05:25:09.442Z,10.27
2022-12-29T05:26:09.673Z,10.23
2022-12-29T05:27:09.412Z,10.18
2022-12-29T05:28:09.647Z,10.17
2022-12-29T05:29:09.398Z,10.12
2022-12-29T05:30:09.445Z,10.12
2022-12-29T05:31:09.433Z,10.09
2022-12-29T05:32:09.518Z,10.08
2022-12-29T05:33:09.333Z,10.05
2022-12-29T05:34:09.533Z,10.05
2022-12-29T05:35:09.303Z,10.04
2022-12-29T05:36:09.386Z,10.04
2022-12-29T05:37:09.310Z,10.01
2022-12-29T05:38:09.546Z,9.97
2022-12-29T05:39:09.430Z,9.99
2022-12-29T05:40:09.240Z,9.99
2022-12-29T05:41:09.333Z,10.01
2022-12-29T05:42:09.215Z,10.01
2022-12-29T05:43:09.397Z,9.97
2022-12-29T05:44:09.336Z,9.97
2022-12-29T05:45:09.199Z,9.97
2022-12-29T05:46:09.357Z,10.01
2022-12-29T05:47:09.200Z,10.04
2022-12-29T05:48:09.435Z,10.04
2022-12-29T05:49:09.161Z,10.04
2022-12-29T05:50:09.206Z,10.05
2022-12-29T05:51:09.119Z,10.08
2022-12-29T05:52:09.193Z,10.09
2022-12-29T05:53:09.125Z,10.09
2022-12-29T05:54:09.202Z,10.09
2022-12-29T05:55:09.075Z,10.09
2022-12-29T05:56:09.116Z,10.09
2022-12-29T05:57:09.048Z,10.08
2022-12-29T05:58:09.151Z,10.09
2022-12-29T05:59:09.029Z,10.11
2022-12-29T06:00:09.148Z,10.14
2022-12-29T06:01:08.975Z,10.17
2022-12-29T06:02:09.186Z,10.20
2022-12-29T06:03:09.239Z,10.25
2022-12-29T06:04:09.212Z,10.27
2022-12-29T06:05:08.972Z,10.29
2022-12-29T06:06:08.999Z,10.36
2022-12-29T06:07:08.910Z,10.40
2022-12-29T06:08:09.006Z,10.38
2022-12-29T06:09:08.913Z,10.42
2022-12-29T06:10:09.017Z,10.42
2022-12-29T06:11:08.875Z,10.38
2022-12-29T06:12:08.925Z,10.38
2022-12-29T06:13:08.829Z,10.33
2022-12-29T06:14:09.039Z,10.33
2022-12-29T06:15:08.846Z,10.30
2022-12-29T06:16:08.906Z,10.29
2022-12-29T06:17:08.795Z,10.29
2022-12-29T06:18:08.892Z,10.33
2022-12-29T06:19:08.761Z,10.34
2022-12-29T06:20:08.942Z,10.36
2022-12-29T06:21:08.718Z,10.40
2022-12-29T06:22:08.827Z,10.38
2022-12-29T06:23:08.702Z,10.34
2022-12-29T06:24:08.801Z,10.34
2022-12-29T06:25:08.716Z,10.30
2022-12-29T06:26:08.824Z,10.30
2022-12-29T06:27:08.659Z,10.32
2022-12-29T06:28:08.887Z,10.27
2022-12-29T06:29:08.644Z,10.27
2022-12-29T06:30:08.843Z,10.29
2022-12-29T06:31:08.594Z,10.30
2022-12-29T06:32:08.811Z,10.30
2022-12-29T06:33:08.578Z,10.29
2022-12-29T06:34:08.882Z,10.29
2022-12-29T06:35:08.573Z,10.29
2022-12-29T06:36:08.590Z,10.27
2022-12-29T06:37:08.527Z,10.30
2022-12-29T06:38:08.619Z,10.29
2022-12-29T06:39:08.554Z,10.29
2022-12-29T06:40:08.635Z,10.32
2022-12-29T06:41:08.527Z,10.33
2022-12-29T06:42:08.576Z,10.34
2022-12-29T06:43:08.468Z,10.33
2022-12-29T06:44:08.653Z,10.34
2022-12-29T06:45:08.423Z,10.36
2022-12-29T06:46:08.546Z,10.40
2022-12-29T06:47:08.441Z,10.40
2022-12-29T06:48:08.515Z,10.40
2022-12-29T06:49:08.380Z,10.48
2022-12-29T06:50:08.479Z,10.48
2022-12-29T06:51:08.356Z,10.48
2022-12-29T06:52:12.743Z,10.53
2022-12-29T06:53:08.343Z,10.56
2022-12-29T06:54:08.511Z,10.63
2022-12-29T06:55:08.305Z,10.64
2022-12-29T06:56:08.519Z,10.64
2022-12-29T06:57:08.269Z,10.66
2022-12-29T06:58:08.371Z,10.68
2022-12-29T06:59:08.265Z,10.71
2022-12-29T07:00:08.346Z,10.71
2022-12-29T07:01:08.268Z,10.73
2022-12-29T07:02:08.498Z,10.74
2022-12-29T07:03:08.373Z,10.73
2022-12-29T07:04:08.382Z,10.76
2022-12-29T07:05:08.184Z,10.73
2022-12-29T07:06:08.316Z,10.76
2022-12-29T07:07:08.151Z,10.82
2022-12-29T07:08:08.320Z,10.84
2022-12-29T07:09:08.150Z,10.86
2022-12-29T07:10:08.324Z,10.85
2022-12-29T07:11:08.136Z,10.85
2022-12-29T07:12:08.216Z,10.85
2022-12-29T07:13:08.106Z,10.89
2022-12-29T07:14:08.198Z,10.91
2022-12-29T07:15:08.062Z,10.94
2022-12-29T07:16:08.177Z,10.92
2022-12-29T07:17:08.108Z,10.94
2022-12-29T07:18:08.166Z,10.94
2022-12-29T07:19:08.035Z,10.94
2022-12-29T07:20:08.092Z,10.92
2022-12-29T07:21:07.989Z,10.92
2022-12-29T07:22:08.084Z,10.94
2022-12-29T07:23:08.148Z,10.89
2022-12-29T07:24:07.907Z,10.86
2022-12-29T07:25:07.984Z,10.85
2022-12-29T07:26:07.929Z,10.81
2022-12-29T07:27:08.046Z,10.81
2022-12-29T07:28:07.919Z,10.76
2022-12-29T07:29:08.007Z,10.74
2022-12-29T07:30:07.836Z,10.73
2022-12-29T07:31:08.004Z,10.71
2022-12-29T07:32:07.832Z,10.71
2022-12-29T07:33:07.988Z,10.71
2022-12-29T07:34:07.796Z,10.71
2022-12-29T07:35:07.933Z,10.73
2022-12-29T07:36:07.757Z,10.73
2022-12-29T07:37:07.801Z,10.73
2022-12-29T07:38:07.754Z,10.73
2022-12-29T07:39:07.815Z,10.73
2022-12-29T07:40:07.906Z,10.71
2022-12-29T07:41:07.885Z,10.70
2022-12-29T07:42:07.698Z,10.71
2022-12-29T07:43:07.853Z,10.71
2022-12-29T07:44:07.647Z,10.79
2022-12-29T07:45:07.815Z,10.85
2022-12-29T07:46:07.689Z,10.94
2022-12-29T07:47:07.809Z,10.97
2022-12-29T07:48:07.640Z,11.00
2022-12-29T07:49:07.695Z,11.03
2022-12-29T07:50:07.587Z,11.03
2022-12-29T07:51:07.859Z,11.03
2022-12-29T07:52:07.629Z,11.06
2022-12-29T07:53:07.785Z,11.10
2022-12-29T07:54:07.518Z,11.10
2022-12-29T07:55:07.735Z,11.11
2022-12-29T07:56:07.571Z,11.17
2022-12-29T07:57:07.725Z,11.15
2022-12-29T07:58:07.858Z,11.18
2022-12-29T07:59:07.557Z,11.19
2022-12-29T08:00:07.488Z,11.17
2022-12-29T08:01:07.612Z,11.18
2022-12-29T08:02:07.615Z,11.17
2022-12-29T08:03:07.592Z,11.21
2022-12-29T08:04:07.484Z,11.22
2022-12-29T08:05:07.587Z,11.28
2022-12-29T08:06:07.379Z,11.25
2022-12-29T08:07:07.664Z,11.28
2022-12-29T08:08:07.360Z,11.29
2022-12-29T08:09:13.645Z,11.29
2022-12-29T08:10:07.343Z,11.35
2022-12-29T08:11:07.416Z,11.37
2022-12-29T08:12:07.305Z,11.40
2022-12-29T08:13:07.493Z,11.40
2022-12-29T08:14:07.280Z,11.42
2022-12-29T08:15:07.385Z,11.42
2022-12-29T08:16:07.436Z,11.39
2022-12-29T08:17:07.376Z,11.40
2022-12-29T08:18:07.317Z,11.44
2022-12-29T08:19:07.379Z,11.43
2022-12-29T08:20:07.189Z,11.43
2022-12-29T08:21:07.470Z,11.43
2022-12-29T08:22:07.170Z,11.43
2022-12-29T08:23:07.427Z,11.43
2022-12-29T08:24:07.139Z,11.42
2022-12-29T08:25:07.222Z,11.42
2022-12-29T08:26:07.257Z,11.44
2022-12-29T08:27:16.206Z,11.46
2022-12-29T08:28:07.126Z,11.46
2022-12-29T08:29:07.247Z,11.51
2022-12-29T08:30:07.083Z,11.57
2022-12-29T08:31:07.438Z,11.64
2022-12-29T08:32:07.056Z,11.64
2022-12-29T08:33:07.334Z,11.65
2022-12-29T08:34:07.032Z,11.64
2022-12-29T08:35:07.203Z,11.67
2022-12-29T08:36:07.079Z,11.70
2022-12-29T08:37:07.005Z,11.73
2022-12-29T08:38:07.124Z,11.78
2022-12-29T08:39:06.989Z,11.80
2022-12-29T08:40:07.100Z,11.85
2022-12-29T08:41:06.952Z,11.86
2022-12-29T08:42:07.066Z,11.86
2022-12-29T08:43:08.035Z,11.91
2022-12-29T08:44:07.095Z,11.90
2022-12-29T08:45:06.933Z,11.94
2022-12-29T08:46:07.057Z,11.91
2022-12-29T08:47:06.892Z,11.95
2022-12-29T08:48:06.950Z,11.94
2022-12-29T08:49:06.865Z,11.95
2022-12-29T08:50:07.054Z,11.96
2022-12-29T08:51:06.854Z,11.95
2022-12-29T08:52:06.915Z,11.94
2022-12-29T08:53:06.817Z,11.95
2022-12-29T08:54:06.878Z,11.95
2022-12-29T08:55:06.776Z,11.96
2022-12-29T08:56:06.794Z,11.96
2022-12-29T08:57:06.804Z,11.99
2022-12-29T08:58:06.840Z,11.99
2022-12-29T08:59:06.791Z,11.99
2022-12-29T09:00:06.839Z,11.98
2022-12-29T09:01:06.741Z,11.96
2022-12-29T09:02:06.860Z,11.94
2022-12-29T09:03:06.931Z,11.95
2022-12-29T09:04:16.447Z,11.91
2022-12-29T09:05:06.717Z,11.94
2022-12-29T09:06:06.778Z,11.96
2022-12-29T09:07:06.645Z,11.94
2022-12-29T09:08:06.677Z,11.95
2022-12-29T09:09:06.609Z,11.94
2022-12-29T09:10:06.701Z,11.94
2022-12-29T09:11:06.576Z,11.90
2022-12-29T09:12:06.754Z,11.86
2022-12-29T09:13:06.552Z,11.88
2022-12-29T09:14:06.718Z,11.86
2022-12-29T09:15:06.552Z,11.90
2022-12-29T09:16:06.674Z,11.86
2022-12-29T09:17:06.540Z,11.88
2022-12-29T09:18:06.706Z,11.90
2022-12-29T09:19:06.502Z,11.88
2022-12-29T09:20:06.624Z,11.88
2022-12-29T09:21:06.535Z,11.86
2022-12-29T09:22:06.605Z,11.85
2022-12-29T09:23:06.548Z,11.86
2022-12-29T09:24:06.422Z,11.82
2022-12-29T09:25:06.718Z,11.83
2022-12-29T09:26:06.374Z,11.82
2022-12-29T09:27:06.599Z,11.79
2022-12-29T09:28:06.603Z,11.73
2022-12-29T09:29:06.630Z,11.72
2022-12-29T09:30:06.473Z,11.70
2022-12-29T09:31:06.439Z,11.72
2022-12-29T09:32:07.943Z,11.70
2022-12-29T09:33:06.346Z,11.65
2022-12-29T09:34:06.455Z,11.65
2022-12-29T09:35:06.554Z,11.62
2022-12-29T09:36:06.490Z,11.60
2022-12-29T09:37:06.233Z,11.61
2022-12-29T09:38:06.412Z,11.60
2022-12-29T09:39:06.260Z,11.62
2022-12-29T09:40:06.414Z,11.65
2022-12-29T09:41:06.182Z,11.62
2022-12-29T09:42:06.625Z,11.65
2022-12-29T09:43:06.195Z,11.67
2022-12-29T09:44:06.423Z,11.69
2022-12-29T09:45:06.154Z,11.64
2022-12-29T09:46:06.427Z,11.67
2022-12-29T09:47:06.199Z,11.64
2022-12-29T09:48:09.776Z,11.64
2022-12-29T09:49:06.201Z,11.64
2022-12-29T09:50:06.098Z,11.64
2022-12-29T09:51:06.162Z,11.64
2022-12-29T09:52:06.069Z,11.64
2022-12-29T09:53:06.167Z,11.65
2022-12-29T09:54:06.093Z,11.67
2022-12-29T09:55:12.028Z,11.69
2022-12-29T09:56:06.064Z,11.70
2022-12-29T09:57:06.147Z,11.69
2022-12-29T09:58:06.013Z,11.70
2022-12-29T09:59:06.070Z,11.70
2022-12-29T10:00:05.981Z,11.72
2022-12-29T10:01:06.234Z,11.73
2022-12-29T10:02:06.132Z,11.73
2022-12-29T10:03:06.219Z,11.72
2022-12-29T10:04:05.928Z,11.69
2022-12-29T10:05:06.115Z,11.70
2022-12-29T10:06:05.905Z,11.67
2022-12-29T10:08:06.094Z,11.70
2022-12-29T10:09:05.838Z,11.72
2022-12-29T10:10:06.124Z,11.72
2022-12-29T10:11:05.848Z,11.72
2022-12-29T10:12:05.917Z,11.70
2022-12-29T10:13:05.768Z,11.72
2022-12-29T10:14:09.565Z,11.70
2022-12-29T10:15:05.816Z,11.72
2022-12-29T10:16:05.998Z,11.69
2022-12-29T10:17:05.731Z,11.70
2022-12-29T10:18:05.950Z,11.73
2022-12-29T10:19:05.756Z,11.75
2022-12-29T10:20:05.982Z,11.76
2022-12-29T10:21:05.721Z,11.76
2022-12-29T10:22:05.878Z,11.78
2022-12-29T10:23:05.699Z,11.73
2022-12-29T10:24:05.803Z,11.76
2022-12-29T10:25:05.665Z,11.76
2022-12-29T10:26:05.798Z,11.80
2022-12-29T10:27:05.632Z,11.79
2022-12-29T10:28:05.784Z,11.78
2022-12-29T10:29:05.587Z,11.76
2022-12-29T10:30:05.741Z,11.78
2022-12-29T10:31:08.965Z,11.78
2022-12-29T10:32:05.699Z,11.79
2022-12-29T10:33:05.747Z,11.79
2022-12-29T10:34:05.560Z,11.80
2022-12-29T10:35:05.669Z,11.82
2022-12-29T10:36:05.517Z,11.82
2022-12-29T10:37:05.727Z,11.80
2022-12-29T10:38:05.508Z,11.79
2022-12-29T10:39:05.586Z,11.78
2022-12-29T10:40:05.473Z,11.78
2022-12-29T10:41:05.638Z,11.78
2022-12-29T10:42:05.484Z,11.79
2022-12-29T10:43:05.561Z,11.78
2022-12-29T10:44:05.434Z,11.76
2022-12-29T10:45:05.528Z,11.75
2022-12-29T10:46:05.429Z,11.75
2022-12-29T10:47:05.600Z,11.76
2022-12-29T10:48:05.384Z,11.76
2022-12-29T10:49:05.458Z,11.78
2022-12-29T10:50:05.342Z,11.75
2022-12-29T10:51:05.361Z,11.76
2022-12-29T10:52:05.442Z,11.78
2022-12-29T10:53:05.305Z,11.78
2022-12-29T10:54:05.397Z,11.79
2022-12-29T10:55:05.264Z,11.78
2022-12-29T10:56:05.500Z,11.79
2022-12-29T10:57:05.397Z,11.78
2022-12-29T10:58:05.244Z,11.78
2022-12-29T10:59:05.333Z,11.80
2022-12-29T11:00:05.343Z,11.79
2022-12-29T11:01:05.374Z,11.79
2022-12-29T11:02:05.272Z,11.80
2022-12-29T11:03:05.403Z,11.79
2022-12-29T11:04:05.181Z,11.75
2022-12-29T11:05:05.262Z,11.78
2022-12-29T11:06:05.163Z,11.78
2022-12-29T11:07:05.286Z,11.78
2022-12-29T11:08:05.168Z,11.80
2022-12-29T11:09:05.349Z,11.83
2022-12-29T11:10:05.129Z,11.86
2022-12-29T11:11:05.171Z,11.96
2022-12-29T11:12:05.104Z,11.95
2022-12-29T11:13:05.265Z,11.98
2022-12-29T11:14:05.087Z,11.94
2022-12-29T11:15:05.217Z,11.96
2022-12-29T11:16:05.058Z,11.95
2022-12-29T11:17:05.041Z,12.01
2022-12-29T11:18:05.014Z,12.05
2022-12-29T11:19:05.156Z,12.02
2022-12-29T11:20:05.077Z,12.04
2022-12-29T11:21:05.075Z,12.01
2022-12-29T11:22:04.983Z,11.98
2022-12-29T11:23:04.976Z,11.98
2022-12-29T11:24:04.958Z,11.94
2022-12-29T11:25:04.984Z,11.85
2022-12-29T11:26:04.897Z,11.70
2022-12-29T11:27:05.113Z,11.60
2022-12-29T11:28:05.013Z,11.51
2022-12-29T11:29:05.011Z,11.40
2022-12-29T11:30:04.889Z,11.42
2022-12-29T11:31:05.028Z,12.34
2022-12-29T11:32:04.885Z,13.49
2022-12-29T11:33:05.003Z,15.69
2022-12-29T11:34:04.814Z,17.51
2022-12-29T11:35:04.991Z,18.60
2022-12-29T11:36:04.826Z,17.59
2022-12-29T11:37:04.980Z,17.51
2022-12-29T11:38:04.747Z,18.15
2022-12-29T11:39:10.490Z,17.59
2022-12-29T11:40:04.824Z,16.08
2022-12-29T11:41:04.905Z,15.17
2022-12-29T11:42:04.743Z,15.11
2022-12-29T11:43:04.908Z,15.19
2022-12-29T11:44:04.706Z,15.34
2022-12-29T11:45:10.520Z,15.71
2022-12-29T11:46:04.815Z,16.35
2022-12-29T11:47:04.728Z,16.73
2022-12-29T11:48:04.674Z,16.71
2022-12-29T11:49:04.652Z,16.82
2022-12-29T11:50:04.613Z,16.24
2022-12-29T11:51:04.722Z,15.64
2022-12-29T11:52:04.626Z,15.35
2022-12-29T11:53:04.706Z,15.14
2022-12-29T11:54:04.563Z,14.75
2022-12-29T11:55:04.736Z,14.22
2022-12-29T11:56:04.546Z,13.81
2022-12-29T11:57:04.779Z,13.48
2022-12-29T11:58:04.531Z,13.17
2022-12-29T11:59:04.520Z,12.86
2022-12-29T12:00:04.500Z,12.72
2022-12-29T12:01:04.569Z,12.62
2022-12-29T12:02:04.629Z,12.49
2022-12-29T12:03:04.637Z,12.34
2022-12-29T12:04:04.613Z,12.19
2022-12-29T12:05:04.521Z,12.09
2022-12-29T12:06:04.414Z,12.01
2022-12-29T12:07:04.606Z,11.91
2022-12-29T12:08:04.419Z,11.83
2022-12-29T12:09:04.611Z,11.82
2022-12-29T12:10:07.890Z,11.70
2022-12-29T12:11:04.319Z,11.64
2022-12-29T12:12:04.607Z,11.61
2022-12-29T12:13:04.304Z,11.58
2022-12-29T12:14:04.433Z,11.57
2022-12-29T12:15:10.565Z,11.51
2022-12-29T12:16:04.429Z,11.51
2022-12-29T12:17:04.497Z,11.47
2022-12-29T12:18:04.285Z,11.42
2022-12-29T12:19:04.386Z,11.39
2022-12-29T12:20:04.218Z,11.36
2022-12-29T12:21:04.380Z,11.37
2022-12-29T12:22:04.194Z,11.29
2022-12-29T12:23:04.388Z,11.27
2022-12-29T12:24:04.241Z,11.25
2022-12-29T12:25:04.410Z,11.22
2022-12-29T12:26:04.168Z,11.17
2022-12-29T12:27:04.219Z,11.09
2022-12-29T12:28:04.236Z,11.06
2022-12-29T12:29:04.374Z,11.02
2022-12-29T12:30:04.187Z,10.96
2022-12-29T12:31:04.395Z,10.92
2022-12-29T12:32:04.108Z,10.88
2022-12-29T12:33:04.265Z,10.86
2022-12-29T12:34:04.065Z,10.85
2022-12-29T12:35:04.079Z,10.88
2022-12-29T12:36:04.199Z,10.91
2022-12-29T12:37:03.995Z,10.91
2022-12-29T12:38:04.075Z,10.89
2022-12-29T12:39:04.017Z,10.92
2022-12-29T12:40:04.172Z,10.91
2022-12-29T12:41:03.968Z,10.89
2022-12-29T12:42:04.125Z,10.86
2022-12-29T12:43:03.916Z,10.86
2022-12-29T12:44:04.139Z,10.85
2022-12-29T12:45:03.931Z,10.91
2022-12-29T12:46:04.086Z,10.96
2022-12-29T12:47:03.855Z,10.96
2022-12-29T12:48:04.051Z,10.92
2022-12-29T12:49:03.924Z,10.92
2022-12-29T12:50:03.973Z,10.96
2022-12-29T12:51:03.833Z,11.02
2022-12-29T12:52:05.460Z,11.10
2022-12-29T12:53:03.795Z,11.19
2022-12-29T12:54:03.924Z,11.21
2022-12-29T12:55:03.753Z,11.14
2022-12-29T12:56:03.954Z,11.09
2022-12-29T12:57:03.965Z,11.10
2022-12-29T12:58:04.053Z,11.06